Flight Track Log - Related Links

Times and Time Zones

All times are in EDT time to prevent confusion due to time zone crossing. See the UAL1650 flight status page for this flight to view local times or setup timezone preferences in your user account.

Time Position Orientation Groundspeed Altitude Reporting Facility
EDT Latitude Longitude Course Direction KTS MPH feet Rate Location/Type
Sun 12:26:21 PM 37.6500 -122.4333 132° Southeast 183 211 2,300  Level Northern Cal TRACON
Sun 12:27:21 PM 37.6667 -122.5000 288° West 218 251 4,900 2,644 Climbing Northern Cal TRACON
Sun 12:28:19 PM 37.6425 -122.5578 242° Southwest 249 287 7,500 2,773 Climbing Oakland Center
Sun 12:29:20 PM 37.5644 -122.5222 160° South 305 351 10,400 2,557 Climbing Oakland Center
Sun 12:30:21 PM 37.4778 -122.4681 154° Southeast 352 405 12,700 2,066 Climbing Oakland Center
Sun 12:31:00 PM 37.1861 -122.0072 132° Southeast  Level FlightAware Approximate
Sun 12:31:22 PM 37.3975 -122.3822 140° Southeast 395 455 14,600  Level Oakland Center
Sun 12:32:23 PM 37.3242 -122.2647 128° Southeast 428 493 16,600 2,146 Climbing Oakland Center
Sun 12:33:25 PM 37.2464 -122.1447 129° Southeast 439 505 19,000 2,195 Climbing Oakland Center
Sun 12:34:26 PM 37.1661 -122.0200 129° Southeast 457 526 21,100 2,016 Climbing Oakland Center
Sun 12:35:27 PM 37.0828 -121.8928 129° Southeast 471 542 23,100 1,918 Climbing Oakland Center
Sun 12:36:28 PM 36.9972 -121.7650 130° Southeast 480 552 25,000 1,672 Climbing Oakland Center
Sun 12:37:29 PM 36.9097 -121.6333 130° Southeast 489 563 26,500 1,623 Climbing Oakland Center
Sun 12:38:30 PM 36.8044 -121.4733 129° Southeast 503 579 28,300 1,463 Climbing Oakland Center
Sun 12:39:32 PM 36.7131 -121.3322 129° Southeast 518 596 29,500 1,171 Climbing Oakland Center
Sun 12:40:33 PM 36.6194 -121.1914 130° Southeast 523 602 30,700 1,131 Climbing Oakland Center
Sun 12:41:34 PM 36.5247 -121.0469 129° Southeast 537 618 31,800 1,279 Climbing Oakland Center
Sun 12:42:35 PM 36.4294 -120.9031 129° Southeast 537 618 33,300 1,279 Climbing Oakland Center
Sun 12:43:36 PM 36.3350 -120.7597 129° Southeast 537 618 34,400 984 Climbing Oakland Center
Sun 12:44:37 PM 36.2386 -120.6189 130° Southeast 537 618 35,300 878 Climbing Oakland Center
Sun 12:45:39 PM 36.1414 -120.4761 130° Southeast 537 618 36,200 780 Climbing Oakland Center
Sun 12:46:40 PM 36.0456 -120.3333 130° Southeast 537 618 36,900 344 Climbing Oakland Center
Sun 12:47:41 PM 35.9486 -120.1897 130° Southeast 537 618 36,900  Level Oakland Center
Sun 12:48:42 PM 35.8522 -120.0492 130° Southeast 536 617 36,900  Level Oakland Center
Sun 12:49:43 PM 35.7567 -119.9089 130° Southeast 534 615 36,900  Level Oakland Center
Sun 12:50:45 PM 35.6419 -119.7431 130° Southeast 531 611 36,900 49 Level Oakland Center
Sun 12:51:46 PM 35.5469 -119.6036 130° Southeast 530 610 37,000 49 Climbing Oakland Center
Sun 12:52:47 PM 35.4497 -119.4653 131° Southeast 530 610 37,000  Level Oakland Center
Sun 12:53:59 PM 35.3364 -119.3017 130° Southeast 527 606 37,000  Level Los Angeles Center
Sun 12:55:01 PM 35.2400 -119.1664 131° Southeast 527 606 37,000  Level Los Angeles Center
Sun 12:56:03 PM 35.1444 -119.0297 131° Southeast 527 606 37,000  Level Los Angeles Center
Sun 12:57:05 PM 35.0464 -118.8953 132° Southeast 527 606 37,000  Level Los Angeles Center
Sun 12:58:07 PM 34.9517 -118.7614 131° Southeast 527 606 37,000  Level Los Angeles Center
Sun 12:59:09 PM 34.8514 -118.6194 131° Southeast 526 605 37,000  Level Los Angeles Center
Sun 01:00:11 PM 34.7819 -118.4403 115° Southeast 531 611 37,000  Level Los Angeles Center
Sun 01:01:14 PM 34.7328 -118.2769 110° East 520 598 37,000  Level Los Angeles Center
Sun 01:02:16 PM 34.6828 -118.1136 110° East 520 598 37,000  Level Los Angeles Center
Sun 01:03:18 PM 34.6319 -117.9492 111° Southeast 522 601 37,000  Level Los Angeles Center
Sun 01:04:20 PM 34.5703 -117.7522 111° Southeast 525 604 37,000  Level Los Angeles Center
Sun 01:05:22 PM 34.5200 -117.5875 110° East 527 606 37,000  Level Los Angeles Center
Sun 01:06:24 PM 34.4683 -117.4222 111° Southeast 528 608 37,000  Level Los Angeles Center
Sun 01:07:27 PM 34.4158 -117.2567 111° Southeast 530 610 37,000  Level Los Angeles Center
Sun 01:08:29 PM 34.3647 -117.0928 111° Southeast 528 608 37,000  Level Los Angeles Center
Sun 01:09:31 PM 34.3017 -116.8942 111° Southeast 529 609 37,000  Level Los Angeles Center
Sun 01:10:33 PM 34.2475 -116.7286 112° Southeast 531 611 37,000  Level Los Angeles Center
Sun 01:11:35 PM 34.1950 -116.5644 111° Southeast 527 606 37,000  Level Los Angeles Center
Sun 01:12:37 PM 34.1419 -116.3950 111° Southeast 540 621 37,000  Level Los Angeles Center
Sun 01:13:39 PM 34.0819 -116.2128 112° Southeast 527 606 37,000 -48 Level Los Angeles Center
Sun 01:14:42 PM 34.0278 -116.0508 112° Southeast 525 604 36,900 -48 Descending Los Angeles Center
Sun 01:15:44 PM 33.9753 -115.8864 111° Southeast 525 604 36,900 48 Level Los Angeles Center
Sun 01:16:46 PM 33.9189 -115.7178 112° Southeast 534 615 37,000 48 Climbing Los Angeles Center
Sun 01:17:48 PM 33.8642 -115.5553 112° Southeast 528 608 37,000  Level Los Angeles Center
Sun 01:18:50 PM 33.7969 -115.3603 112° Southeast 527 606 37,000  Level Los Angeles Center
Sun 01:19:52 PM 33.7433 -115.1981 112° Southeast 527 606 37,000 -48 Level Los Angeles Center
Sun 01:20:54 PM 33.6936 -115.0356 110° East 522 601 36,900  Descending Los Angeles Center
Sun 01:21:56 PM 33.6661 -114.8661 101° East 522 601 37,000 48 Climbing Los Angeles Center
Sun 01:22:59 PM 33.6358 -114.6972 102° East 520 598 37,000 -48 Level Los Angeles Center
Sun 01:24:01 PM 33.6064 -114.5283 102° East 519 597 36,900  Descending Los Angeles Center
Sun 01:25:03 PM 33.5686 -114.3256 103° East 519 597 37,000 48 Climbing Los Angeles Center
Sun 01:26:05 PM 33.5383 -114.1569 102° East 519 597 37,000  Level Los Angeles Center
Sun 01:26:37 PM 33.5261 -114.0925 103° East 517 595 37,000  Level Albuquerque Center
Sun 01:27:39 PM 33.4892 -113.8903 102° East 518 596 37,000  Level Albuquerque Center
Sun 01:28:41 PM 33.4581 -113.7211 102° East 518 596 37,000 -48 Level Albuquerque Center
Sun 01:29:43 PM 33.4286 -113.5486 102° East 521 600 36,900 -48 Descending Albuquerque Center
Sun 01:30:45 PM 33.3947 -113.3828 104° East 520 598 36,900 48 Level Albuquerque Center
Sun 01:31:47 PM 33.3642 -113.2164 102° East 517 595 37,000 48 Climbing Albuquerque Center
Sun 01:32:49 PM 33.3317 -113.0481 103° East 517 595 37,000  Level Albuquerque Center
Sun 01:33:51 PM 33.2986 -112.8806 103° East 517 595 37,000  Level Albuquerque Center
Sun 01:34:53 PM 33.2589 -112.6786 103° East 517 595 37,000  Level Albuquerque Center
Sun 01:35:55 PM 33.2281 -112.5214 103° East 518 596 37,000  Level Albuquerque Center
Sun 01:36:57 PM 33.1947 -112.3547 103° East 518 596 37,000  Level Albuquerque Center
Sun 01:37:59 PM 33.1619 -112.1897 103° East 518 596 37,000  Level Albuquerque Center
Sun 01:39:02 PM 33.1225 -111.9956 104° East 513 590 37,000  Level Albuquerque Center
Sun 01:40:04 PM 33.0894 -111.8333 104° East 511 588 37,000  Level Albuquerque Center
Sun 01:41:06 PM 33.0567 -111.6719 104° East 509 586 37,000  Level Albuquerque Center
Sun 01:42:08 PM 33.0239 -111.5111 104° East 507 583 37,000  Level Albuquerque Center
Sun 01:43:10 PM 32.9903 -111.3489 104° East 507 583 37,000  Level Albuquerque Center
Sun 01:44:12 PM 32.9497 -111.1542 104° East 507 583 37,000  Level Albuquerque Center
Sun 01:45:14 PM 32.9150 -110.9914 104° East 509 586 37,000  Level Albuquerque Center
Sun 01:46:16 PM 32.8800 -110.8267 104° East 510 587 37,000  Level Albuquerque Center
Sun 01:47:18 PM 32.8456 -110.6617 104° East 510 587 37,000  Level Albuquerque Center
Sun 01:48:21 PM 32.8094 -110.4978 105° East 510 587 37,000  Level Albuquerque Center
Sun 01:49:23 PM 32.7656 -110.2997 105° East 513 590 37,000  Level Albuquerque Center
Sun 01:50:25 PM 32.7294 -110.1350 105° East 514 592 37,000  Level Albuquerque Center
Sun 01:51:27 PM 32.6928 -109.9692 105° East 516 594 37,000  Level Albuquerque Center
Sun 01:52:29 PM 32.6561 -109.8047 105° East 516 594 37,000  Level Albuquerque Center
Sun 01:53:31 PM 32.6183 -109.6397 105° East 518 596 37,000  Level Albuquerque Center
Sun 01:54:33 PM 32.5733 -109.4431 105° East 519 597 37,000  Level Albuquerque Center
Sun 01:55:35 PM 32.5375 -109.2786 104° East 519 597 37,000  Level Albuquerque Center
Sun 01:56:37 PM 32.5000 -109.1161 105° East 519 597 37,000  Level Albuquerque Center
Sun 01:57:39 PM 32.4619 -108.9539 105° East 519 597 37,000  Level Albuquerque Center
Sun 01:58:41 PM 32.4244 -108.7900 105° East 519 597 37,000  Level Albuquerque Center
Sun 01:59:44 PM 32.3789 -108.5911 105° East 520 598 37,000  Level Albuquerque Center
Sun 02:00:46 PM 32.3394 -108.4242 106° East 522 601 37,000 -48 Level Albuquerque Center
Sun 02:01:48 PM 32.3006 -108.2586 105° East 522 601 36,900 -48 Descending Albuquerque Center
Sun 02:02:50 PM 32.2614 -108.0942 106° East 522 601 36,900 48 Level Albuquerque Center
Sun 02:03:52 PM 32.2214 -107.9300 106° East 522 601 37,000 48 Climbing Albuquerque Center
Sun 02:04:54 PM 32.1828 -107.7650 105° East 523 602 37,000 -48 Level Albuquerque Center
Sun 02:05:56 PM 32.1347 -107.5672 106° East 524 603 36,900 -48 Descending Albuquerque Center
Sun 02:06:58 PM 32.0947 -107.4033 106° East 524 603 36,900 48 Level Albuquerque Center
Sun 02:08:00 PM 32.0561 -107.2403 106° East 524 603 37,000 48 Climbing Albuquerque Center
Sun 02:09:02 PM 32.0167 -107.0789 106° East 523 602 37,000 -48 Level Albuquerque Center
Sun 02:10:04 PM 31.9689 -106.8836 106° East 523 602 36,900  Descending Albuquerque Center
Sun 02:11:06 PM 31.9278 -106.7211 107° East 522 601 37,000  Climbing Albuquerque Center
Sun 02:12:08 PM 31.8867 -106.5606 107° East 522 601 36,900  Descending Albuquerque Center
Sun 02:13:10 PM 31.8439 -106.3975 107° East 522 601 37,000  Climbing Albuquerque Center
Sun 02:14:12 PM 31.8011 -106.2322 107° East 523 602 36,900  Descending Albuquerque Center
Sun 02:15:15 PM 31.7536 -106.0339 106° East 525 604 37,000 48 Climbing Albuquerque Center
Sun 02:16:17 PM 31.7128 -105.8694 106° East 524 603 37,000 -48 Level Albuquerque Center
Sun 02:17:19 PM 31.6722 -105.7064 106° East 523 602 36,900  Descending Albuquerque Center
Sun 02:18:21 PM 31.6311 -105.5467 107° East 514 592 37,000 48 Climbing Albuquerque Center
Sun 02:19:23 PM 31.5908 -105.3875 107° East 511 588 37,000 -48 Level Albuquerque Center
Sun 02:20:25 PM 31.5517 -105.2278 106° East 511 588 36,900  Descending Albuquerque Center
Sun 02:22:29 PM 31.4633 -104.8850 107° East 499 574 37,000  Climbing Albuquerque Center
Sun 02:23:31 PM 31.4233 -104.7306 107° East 496 571 36,900  Descending Albuquerque Center
Sun 02:24:33 PM 31.3831 -104.5742 107° East 496 571 37,000 48 Climbing Albuquerque Center
Sun 02:25:35 PM 31.3419 -104.4186 107° East 496 571 37,000 -32 Level Albuquerque Center
Sun 02:27:39 PM 31.2625 -104.1092 107° East 496 571 36,900  Descending Albuquerque Center
Sun 02:28:41 PM 31.2200 -103.9578 108° East 494 568 37,000 48 Climbing Albuquerque Center
Sun 02:29:43 PM 31.1694 -103.7725 108° East 495 570 37,000  Level Albuquerque Center
Sun 02:30:45 PM 31.1294 -103.6294 108° East 497 572 37,000  Level Albuquerque Center
Sun 02:31:47 PM 31.0864 -103.4753 108° East 498 573 37,000 -49 Level Albuquerque Center
Sun 02:32:48 PM 31.0436 -103.3211 108° East 500 575 36,900 -49 Descending Albuquerque Center
Sun 02:33:50 PM 30.9956 -103.1386 107° East 496 571 36,900 48 Level Albuquerque Center
Sun 02:34:52 PM 30.9536 -102.9869 108° East 494 568 37,000 48 Climbing Albuquerque Center
Sun 02:35:54 PM 30.9142 -102.8339 107° East 494 568 37,000  Level Albuquerque Center
Sun 02:36:56 PM 30.8739 -102.6781 107° East 501 577 37,000  Level Albuquerque Center
Sun 02:37:58 PM 30.8339 -102.5228 107° East 503 579 37,000  Level Albuquerque Center
Sun 02:40:02 PM 30.7428 -102.1778 107° East 508 585 37,000 -32 Level Albuquerque Center
Sun 02:41:04 PM 30.7014 -102.0203 107° East 510 587 36,900 -45 Descending Albuquerque Center
Sun 02:42:16 PM 30.6531 -101.8325 107° East 512 589 36,900 45 Level Houston Center
Sun 02:43:18 PM 30.6103 -101.6758 108° East 512 589 37,000 48 Climbing Houston Center
Sun 02:44:20 PM 30.5664 -101.5111 107° East 512 589 37,000  Level Houston Center
Sun 02:45:22 PM 30.5236 -101.3550 108° East 512 589 37,000 -48 Level Houston Center
Sun 02:46:24 PM 30.4808 -101.2000 108° East 511 588 36,900  Descending Houston Center
Sun 02:47:26 PM 30.4342 -101.0228 107° East 501 577 37,000  Climbing Houston Center
Sun 02:48:28 PM 30.3894 -100.8639 108° East 499 574 36,900  Descending Houston Center
Sun 02:49:31 PM 30.3478 -100.7117 108° East 499 574 37,000  Climbing Houston Center
Sun 02:50:33 PM 30.3061 -100.5594 108° East 498 573 36,900  Descending Houston Center
Sun 02:51:35 PM 30.2636 -100.4086 108° East 495 570 37,000  Climbing Houston Center
Sun 02:52:37 PM 30.2217 -100.2567 108° East 492 566 36,900  Descending Houston Center
Sun 02:53:39 PM 30.1786 -100.1025 108° East 492 566 37,000 48 Climbing Houston Center
Sun 02:54:41 PM 30.1261 -99.9206 108° East 492 566 37,000  Level Houston Center
Sun 02:55:43 PM 30.0819 -99.7686 109° East 493 567 37,000  Level Houston Center
Sun 02:56:46 PM 30.0383 -99.6172 108° East 496 571 37,000  Level Houston Center
Sun 02:57:48 PM 29.9950 -99.4650 108° East 496 571 37,000  Level Houston Center
Sun 02:58:50 PM 29.9528 -99.3156 108° East 493 567 37,000 -48 Level Houston Center
Sun 02:59:52 PM 29.9061 -99.1656 110° East 497 572 36,900  Descending Houston Center
Sun 03:00:54 PM 29.8408 -98.9914 113° Southeast 493 567 37,000 48 Climbing Houston Center
Sun 03:01:56 PM 29.7875 -98.8478 113° Southeast 490 564 37,000  Level Houston Center
Sun 03:02:59 PM 29.7308 -98.6939 113° Southeast 484 557 37,000  Level Houston Center
Sun 03:04:01 PM 29.6789 -98.5528 113° Southeast 483 556 37,000  Level Houston Center
Sun 03:05:03 PM 29.6472 -98.3983 103° East 504 580 37,000  Level Houston Center
Sun 03:06:05 PM 29.6489 -98.2269 89° East 498 573 37,000  Level Houston Center
Sun 03:07:07 PM 29.6383 -98.0717 94° East 492 566 37,000 -339 Level Houston Center
Sun 03:08:09 PM 29.5694 -97.9275 119° Southeast 482 555 36,300 -720 Descending Houston Center
Sun 03:09:12 PM 29.4931 -97.8183 129° Southeast 474 545 35,500 -864 Descending Houston Center
Sun 03:10:14 PM 29.4464 -97.6708 110° East 492 566 34,500 -1,403 Descending Houston Center
Sun 03:11:16 PM 29.4256 -97.5142 99° East 500 575 32,600 -2,516 Descending Houston Center
Sun 03:12:18 PM 29.4192 -97.3542 93° East 509 586 29,300 -2,806 Descending Houston Center
Sun 03:13:20 PM 29.4414 -97.1675 82° East 494 568 26,800 -2,274 Descending Houston Center
Sun 03:14:22 PM 29.4581 -97.0189 83° East 474 545 24,600 -2,081 Descending Houston Center
Sun 03:15:24 PM 29.4739 -96.8725 83° East 455 524 22,500 -1,968 Descending Houston Center
Sun 03:16:27 PM 29.4878 -96.7317 84° East 441 507 20,500 -1,948 Descending Houston Center
Sun 03:16:41 PM 29.4894 -96.6981 87° East 432 497 20,000 -1,935 Descending Houston Center
Sun 03:17:29 PM 29.5019 -96.5972 82° East 427 491 18,500 -2,152 Descending Houston Center
Sun 03:18:13 PM 29.5119 -96.4894 84° East 410 472 16,700 -2,032 Descending Houston Center
Sun 03:18:31 PM 29.5156 -96.4678 79° East 414 476 16,400 -1,650 Descending Houston Center
Sun 03:19:33 PM 29.5267 -96.3447 84° East 391 450 14,500 -1,946 Descending Houston Center
Sun 03:20:22 PM 29.5389 -96.2347 83° East 378 435 12,800 -2,129 Descending Houston Center
Sun 03:20:35 PM 29.5422 -96.2019 83° East 378 435 12,300 -787 Descending Houston Center
Sun 03:21:23 PM 29.5706 -96.1158 69° East 365 420 12,000 -387 Descending Houston Center
Sun 03:21:37 PM 29.5828 -96.0956 55° Northeast 368 423 11,900  Descending Houston Center
Sun 03:22:24 PM 29.6225 -96.0139 61° Northeast 373 429 12,000 95 Climbing Houston Center
Sun 03:22:40 PM 29.6336 -95.9944 57° Northeast 371 427 12,000 -492 Level Houston Center
Sun 03:23:25 PM 29.6747 -95.9119 60° Northeast 361 415 11,500 -581 Descending Houston Center
Sun 03:23:42 PM 29.6828 -95.8950 61° Northeast 363 418 11,400 -590 Descending Houston Center
Sun 03:24:26 PM 29.7192 -95.8225 60° Northeast 322 371 10,900 -677 Descending Houston Center
Sun 03:24:44 PM 29.7292 -95.8053 56° Northeast 333 383 10,700 -1,235 Descending Houston Center
Sun 03:25:34 PM 29.7711 -95.7203 60° Northeast 316 364 9,500 -1,161 Descending Houston Center
Sun 03:25:46 PM 29.7717 -95.7169 79° East 322 371 9,500 -1,091 Level Houston Center
Sun 03:26:29 PM 29.8100 -95.6386 61° Northeast 312 359 8,500 -1,355 Descending Houston Center
Sun 03:26:48 PM 29.8250 -95.6131 56° Northeast 316 364 8,100 -1,309 Descending Houston Center
Sun 03:27:24 PM 29.8492 -95.5619 61° Northeast 306 352 7,300 -1,238 Descending Houston Center
Sun 03:27:51 PM 29.8661 -95.5281 60° Northeast 307 353 6,800 -1,068 Descending Houston Center
Sun 03:28:37 PM 29.8944 -95.4578 65° Northeast 293 337 6,000 -774 Descending Houston Center
Sun 03:28:53 PM 29.8972 -95.4422 78° East 292 336 6,000  Level Houston Center
Sun 03:29:33 PM 29.8953 -95.3756 92° East 285 328 6,000 97 Level Houston Center
Sun 03:29:55 PM 29.8967 -95.3508 86° East 285 328 6,100  Climbing Houston Center
Sun 03:30:39 PM 29.8967 -95.2742 90° East 285 328 6,000  Descending Houston Center
Sun 03:30:57 PM 29.8969 -95.2586 89° East 285 328 6,100 -97 Climbing Houston Center
Sun 03:31:41 PM 29.8967 -95.1850 90° East 261 300 5,900 -194 Descending Houston Center
Sun 03:31:59 PM 29.8967 -95.1736 90° East 269 310 5,900 -1,393 Level Houston Center
Sun 03:32:37 PM 29.8961 -95.1106 91° East 256 295 4,600 -1,452 Descending Houston Center
Sun 03:33:01 PM 29.8967 -95.0919 88° East 259 298 4,400 -1,500 Descending Houston Center
Sun 03:33:37 PM 29.9033 -95.0300 83° East 253 291 3,100 -1,714 Descending Houston Center
Sun 03:34:04 PM 29.9189 -95.0036 56° Northeast 253 291 2,600 -985 Descending Houston Center
Sun 03:34:44 PM 29.9581 -95.0089 353° North 205 236 2,000 -484 Descending Houston Center
Sun 03:35:06 PM 29.9661 -95.0256 299° West 226 260 2,100  Climbing Houston Center
Sun 03:35:40 PM 29.9756 -95.0619 287° West 189 217 2,000  Descending Houston Center
Sun 03:36:08 PM 29.9794 -95.0828 282° West 200 230 2,100  Climbing Houston Center
Sun 03:36:41 PM 29.9769 -95.1222 266° West 186 214 2,000  Descending Houston Center
Sun 03:37:10 PM 29.9767 -95.1422 269° West 191 220 2,100 -90 Climbing Houston Center
Sun 03:37:48 PM 29.9769 -95.1897 270° West 187 215 1,900 -290 Descending Houston Center
Sun 03:38:12 PM 29.9778 -95.2017 275° West 191 220 1,800 -873 Descending Houston Center
Sun 03:38:43 PM 29.9778 -95.2428 270° West 174 200 1,100 -968 Descending Houston Center
Sun 03:39:14 PM 29.9775 -95.2681 269° West 183 211 800 -511 Descending Houston Center
Sun 03:40:17 PM 29.9772 -95.3136 270° West 175 201 300 -476 Descending Houston Center

Login

Don't have an account? Register now (free) for customized features, flight alerts, and more!